sensor_id;sensor_type;location;lat;lon;timestamp;temperature;humidity
71668;DHT22;59504;54.806;9.640;2022-08-18T00:01:07;19.20;77.00
71668;DHT22;59504;54.806;9.640;2022-08-18T00:03:08;19.20;77.30
71668;DHT22;59504;54.806;9.640;2022-08-18T00:05:10;19.20;77.10
71668;DHT22;59504;54.806;9.640;2022-08-18T00:07:20;19.10;77.30
71668;DHT22;59504;54.806;9.640;2022-08-18T00:09:20;19.10;77.70
71668;DHT22;59504;54.806;9.640;2022-08-18T00:11:21;19.10;77.60
71668;DHT22;59504;54.806;9.640;2022-08-18T00:13:23;19.10;78.10
71668;DHT22;59504;54.806;9.640;2022-08-18T00:15:24;19.00;77.90
71668;DHT22;59504;54.806;9.640;2022-08-18T00:17:25;19.00;78.00
71668;DHT22;59504;54.806;9.640;2022-08-18T00:19:25;19.00;78.10
71668;DHT22;59504;54.806;9.640;2022-08-18T00:21:26;19.00;78.50
71668;DHT22;59504;54.806;9.640;2022-08-18T00:23:27;19.10;78.30
71668;DHT22;59504;54.806;9.640;2022-08-18T00:25:31;19.00;78.20
71668;DHT22;59504;54.806;9.640;2022-08-18T00:27:32;19.00;78.80
71668;DHT22;59504;54.806;9.640;2022-08-18T00:29:33;19.00;78.80
71668;DHT22;59504;54.806;9.640;2022-08-18T00:31:34;18.90;78.70
71668;DHT22;59504;54.806;9.640;2022-08-18T00:33:35;18.90;78.80
71668;DHT22;59504;54.806;9.640;2022-08-18T00:35:37;18.90;78.70
71668;DHT22;59504;54.806;9.640;2022-08-18T00:37:39;18.90;78.50
71668;DHT22;59504;54.806;9.640;2022-08-18T00:39:40;18.90;78.70
71668;DHT22;59504;54.806;9.640;2022-08-18T00:41:41;18.90;78.70
71668;DHT22;59504;54.806;9.640;2022-08-18T00:43:47;18.90;78.50
71668;DHT22;59504;54.806;9.640;2022-08-18T00:45:48;18.80;78.90
71668;DHT22;59504;54.806;9.640;2022-08-18T00:47:49;18.80;79.10
71668;DHT22;59504;54.806;9.640;2022-08-18T00:49:51;18.80;79.30
71668;DHT22;59504;54.806;9.640;2022-08-18T00:51:52;18.80;79.60
71668;DHT22;59504;54.806;9.640;2022-08-18T00:56:17;18.80;80.60
71668;DHT22;59504;54.806;9.640;2022-08-18T00:58:29;18.80;80.10
71668;DHT22;59504;54.806;9.640;2022-08-18T01:00:32;18.80;80.30
71668;DHT22;59504;54.806;9.640;2022-08-18T01:02:38;18.70;80.20
71668;DHT22;59504;54.806;9.640;2022-08-18T01:06:56;18.70;80.90
71668;DHT22;59504;54.806;9.640;2022-08-18T01:08:58;18.70;80.70
71668;DHT22;59504;54.806;9.640;2022-08-18T01:11:00;18.80;80.30
71668;DHT22;59504;54.806;9.640;2022-08-18T01:13:02;18.80;80.60
71668;DHT22;59504;54.806;9.640;2022-08-18T01:15:03;18.80;80.50
71668;DHT22;59504;54.806;9.640;2022-08-18T01:17:04;18.80;80.50
71668;DHT22;59504;54.806;9.640;2022-08-18T01:19:26;18.80;81.10
71668;DHT22;59504;54.806;9.640;2022-08-18T01:21:53;18.80;81.20
71668;DHT22;59504;54.806;9.640;2022-08-18T01:23:55;18.80;82.50
71668;DHT22;59504;54.806;9.640;2022-08-18T01:25:56;18.80;82.50
71668;DHT22;59504;54.806;9.640;2022-08-18T01:28:00;18.80;83.20
71668;DHT22;59504;54.806;9.640;2022-08-18T01:30:06;18.80;84.00
71668;DHT22;59504;54.806;9.640;2022-08-18T01:32:10;18.80;84.70
71668;DHT22;59504;54.806;9.640;2022-08-18T01:34:13;18.80;84.60
71668;DHT22;59504;54.806;9.640;2022-08-18T01:36:17;18.80;84.80
71668;DHT22;59504;54.806;9.640;2022-08-18T01:38:20;18.80;85.00
71668;DHT22;59504;54.806;9.640;2022-08-18T01:40:23;18.90;84.40
71668;DHT22;59504;54.806;9.640;2022-08-18T01:42:24;18.80;84.50
71668;DHT22;59504;54.806;9.640;2022-08-18T01:44:24;18.90;84.80
71668;DHT22;59504;54.806;9.640;2022-08-18T01:46:28;18.90;84.60
71668;DHT22;59504;54.806;9.640;2022-08-18T01:48:31;18.90;84.50
71668;DHT22;59504;54.806;9.640;2022-08-18T01:50:34;18.90;84.50
71668;DHT22;59504;54.806;9.640;2022-08-18T01:52:35;18.90;84.10
71668;DHT22;59504;54.806;9.640;2022-08-18T01:54:36;18.90;84.20
71668;DHT22;59504;54.806;9.640;2022-08-18T01:56:40;18.90;84.20
71668;DHT22;59504;54.806;9.640;2022-08-18T01:58:42;18.90;84.20
71668;DHT22;59504;54.806;9.640;2022-08-18T02:00:43;18.90;84.80
71668;DHT22;59504;54.806;9.640;2022-08-18T02:02:44;18.90;83.80
71668;DHT22;59504;54.806;9.640;2022-08-18T02:04:46;18.90;84.00
71668;DHT22;59504;54.806;9.640;2022-08-18T02:06:47;18.90;84.10
71668;DHT22;59504;54.806;9.640;2022-08-18T02:08:48;18.90;84.00
71668;DHT22;59504;54.806;9.640;2022-08-18T02:10:49;18.90;83.90
71668;DHT22;59504;54.806;9.640;2022-08-18T02:12:49;18.90;83.70
71668;DHT22;59504;54.806;9.640;2022-08-18T02:14:50;18.90;83.70
71668;DHT22;59504;54.806;9.640;2022-08-18T02:16:52;18.90;83.60
71668;DHT22;59504;54.806;9.640;2022-08-18T02:18:55;18.90;83.50
71668;DHT22;59504;54.806;9.640;2022-08-18T02:20:58;18.90;83.50
71668;DHT22;59504;54.806;9.640;2022-08-18T02:23:04;18.90;83.70
71668;DHT22;59504;54.806;9.640;2022-08-18T02:25:06;18.90;83.60
71668;DHT22;59504;54.806;9.640;2022-08-18T02:27:08;18.90;83.60
71668;DHT22;59504;54.806;9.640;2022-08-18T02:29:09;18.80;83.50
71668;DHT22;59504;54.806;9.640;2022-08-18T02:31:13;18.90;83.40
71668;DHT22;59504;54.806;9.640;2022-08-18T02:33:16;18.80;83.40
71668;DHT22;59504;54.806;9.640;2022-08-18T02:35:17;18.90;83.40
71668;DHT22;59504;54.806;9.640;2022-08-18T02:37:18;18.90;83.30
71668;DHT22;59504;54.806;9.640;2022-08-18T02:39:19;18.80;83.20
71668;DHT22;59504;54.806;9.640;2022-08-18T02:41:19;18.90;82.90
71668;DHT22;59504;54.806;9.640;2022-08-18T02:43:21;18.90;82.90
71668;DHT22;59504;54.806;9.640;2022-08-18T02:45:22;18.90;82.60
71668;DHT22;59504;54.806;9.640;2022-08-18T02:47:23;18.90;82.40
71668;DHT22;59504;54.806;9.640;2022-08-18T02:49:23;18.90;82.10
71668;DHT22;59504;54.806;9.640;2022-08-18T02:51:24;18.90;81.90
71668;DHT22;59504;54.806;9.640;2022-08-18T02:53:25;18.90;81.80
71668;DHT22;59504;54.806;9.640;2022-08-18T02:55:27;18.90;81.50
71668;DHT22;59504;54.806;9.640;2022-08-18T02:57:29;18.90;81.40
71668;DHT22;59504;54.806;9.640;2022-08-18T02:59:30;18.90;81.20
71668;DHT22;59504;54.806;9.640;2022-08-18T03:01:37;18.90;81.00
71668;DHT22;59504;54.806;9.640;2022-08-18T03:03:38;18.90;81.00
71668;DHT22;59504;54.806;9.640;2022-08-18T03:05:39;18.90;80.80
71668;DHT22;59504;54.806;9.640;2022-08-18T03:07:40;19.00;80.80
71668;DHT22;59504;54.806;9.640;2022-08-18T03:09:41;18.90;80.70
71668;DHT22;59504;54.806;9.640;2022-08-18T03:11:42;18.90;80.60
71668;DHT22;59504;54.806;9.640;2022-08-18T03:13:43;18.90;80.60
71668;DHT22;59504;54.806;9.640;2022-08-18T03:15:45;19.00;80.60
71668;DHT22;59504;54.806;9.640;2022-08-18T03:17:46;18.90;80.50
71668;DHT22;59504;54.806;9.640;2022-08-18T03:19:47;19.00;80.50
71668;DHT22;59504;54.806;9.640;2022-08-18T03:21:47;19.00;80.50
71668;DHT22;59504;54.806;9.640;2022-08-18T03:23:49;19.00;80.40
71668;DHT22;59504;54.806;9.640;2022-08-18T03:25:50;19.00;80.30
71668;DHT22;59504;54.806;9.640;2022-08-18T03:27:51;19.00;80.10
71668;DHT22;59504;54.806;9.640;2022-08-18T03:29:52;19.00;79.90
71668;DHT22;59504;54.806;9.640;2022-08-18T03:31:53;19.10;79.80
71668;DHT22;59504;54.806;9.640;2022-08-18T03:33:56;19.10;79.60
71668;DHT22;59504;54.806;9.640;2022-08-18T03:36:06;19.10;79.60
71668;DHT22;59504;54.806;9.640;2022-08-18T03:38:07;19.10;79.60
71668;DHT22;59504;54.806;9.640;2022-08-18T03:40:08;19.00;79.40
71668;DHT22;59504;54.806;9.640;2022-08-18T03:42:10;19.10;79.40
71668;DHT22;59504;54.806;9.640;2022-08-18T03:44:12;19.00;79.30
71668;DHT22;59504;54.806;9.640;2022-08-18T03:46:15;19.00;79.30
71668;DHT22;59504;54.806;9.640;2022-08-18T03:48:16;19.10;79.40
71668;DHT22;59504;54.806;9.640;2022-08-18T03:50:17;19.10;79.40
71668;DHT22;59504;54.806;9.640;2022-08-18T03:52:19;19.00;79.40
71668;DHT22;59504;54.806;9.640;2022-08-18T03:54:20;19.00;79.50
71668;DHT22;59504;54.806;9.640;2022-08-18T03:56:23;19.00;79.60
71668;DHT22;59504;54.806;9.640;2022-08-18T03:58:24;19.00;80.30
71668;DHT22;59504;54.806;9.640;2022-08-18T04:00:25;19.00;79.60
71668;DHT22;59504;54.806;9.640;2022-08-18T04:02:26;19.00;79.50
71668;DHT22;59504;54.806;9.640;2022-08-18T04:04:28;19.00;79.60
71668;DHT22;59504;54.806;9.640;2022-08-18T04:06:33;19.00;79.60
71668;DHT22;59504;54.806;9.640;2022-08-18T04:08:33;19.00;79.70
71668;DHT22;59504;54.806;9.640;2022-08-18T04:10:34;19.00;79.70
71668;DHT22;59504;54.806;9.640;2022-08-18T04:12:35;19.00;79.70
71668;DHT22;59504;54.806;9.640;2022-08-18T04:14:40;19.10;79.70
71668;DHT22;59504;54.806;9.640;2022-08-18T04:16:42;19.10;79.80
71668;DHT22;59504;54.806;9.640;2022-08-18T04:18:42;19.10;79.80
71668;DHT22;59504;54.806;9.640;2022-08-18T04:20:43;19.10;79.70
71668;DHT22;59504;54.806;9.640;2022-08-18T04:22:47;19.10;79.70
71668;DHT22;59504;54.806;9.640;2022-08-18T04:24:47;19.10;80.10
71668;DHT22;59504;54.806;9.640;2022-08-18T04:26:49;19.10;79.40
71668;DHT22;59504;54.806;9.640;2022-08-18T04:28:50;19.20;79.40
71668;DHT22;59504;54.806;9.640;2022-08-18T04:30:52;19.10;79.40
71668;DHT22;59504;54.806;9.640;2022-08-18T04:32:53;19.20;79.50
71668;DHT22;59504;54.806;9.640;2022-08-18T04:34:54;19.20;79.60
71668;DHT22;59504;54.806;9.640;2022-08-18T04:36:54;19.20;79.70
71668;DHT22;59504;54.806;9.640;2022-08-18T04:38:55;19.20;79.80
71668;DHT22;59504;54.806;9.640;2022-08-18T04:40:57;19.20;79.90
71668;DHT22;59504;54.806;9.640;2022-08-18T04:42:57;19.20;80.00
71668;DHT22;59504;54.806;9.640;2022-08-18T04:44:58;19.20;80.00
71668;DHT22;59504;54.806;9.640;2022-08-18T04:46:59;19.30;80.10
71668;DHT22;59504;54.806;9.640;2022-08-18T04:49:00;19.30;80.20
71668;DHT22;59504;54.806;9.640;2022-08-18T04:51:05;19.30;80.20
71668;DHT22;59504;54.806;9.640;2022-08-18T04:53:07;19.30;80.30
71668;DHT22;59504;54.806;9.640;2022-08-18T04:55:27;19.30;80.30
71668;DHT22;59504;54.806;9.640;2022-08-18T04:57:28;19.40;80.30
71668;DHT22;59504;54.806;9.640;2022-08-18T04:59:31;19.40;80.30
71668;DHT22;59504;54.806;9.640;2022-08-18T05:01:40;19.30;80.20
71668;DHT22;59504;54.806;9.640;2022-08-18T05:03:41;19.40;80.30
71668;DHT22;59504;54.806;9.640;2022-08-18T05:05:42;19.40;80.10
71668;DHT22;59504;54.806;9.640;2022-08-18T05:07:46;19.40;80.10
71668;DHT22;59504;54.806;9.640;2022-08-18T05:09:49;19.40;80.10
71668;DHT22;59504;54.806;9.640;2022-08-18T05:11:54;19.40;80.00
71668;DHT22;59504;54.806;9.640;2022-08-18T05:13:56;19.50;80.10
71668;DHT22;59504;54.806;9.640;2022-08-18T05:15:59;19.40;80.00
71668;DHT22;59504;54.806;9.640;2022-08-18T05:18:06;19.50;80.10
71668;DHT22;59504;54.806;9.640;2022-08-18T05:20:08;19.50;80.00
71668;DHT22;59504;54.806;9.640;2022-08-18T05:22:09;19.40;79.90
71668;DHT22;59504;54.806;9.640;2022-08-18T05:24:10;19.40;79.80
71668;DHT22;59504;54.806;9.640;2022-08-18T05:26:13;19.50;79.90
71668;DHT22;59504;54.806;9.640;2022-08-18T05:28:15;19.50;79.70
71668;DHT22;59504;54.806;9.640;2022-08-18T05:30:16;19.50;79.70
71668;DHT22;59504;54.806;9.640;2022-08-18T05:32:23;19.50;79.60
71668;DHT22;59504;54.806;9.640;2022-08-18T05:34:38;19.50;79.60
71668;DHT22;59504;54.806;9.640;2022-08-18T05:42:13;19.50;79.50
71668;DHT22;59504;54.806;9.640;2022-08-18T05:44:30;19.50;79.30
71668;DHT22;59504;54.806;9.640;2022-08-18T05:46:52;19.50;79.20
71668;DHT22;59504;54.806;9.640;2022-08-18T05:48:56;19.50;79.00
71668;DHT22;59504;54.806;9.640;2022-08-18T05:51:08;19.50;79.10
71668;DHT22;59504;54.806;9.640;2022-08-18T05:53:14;19.50;79.00
71668;DHT22;59504;54.806;9.640;2022-08-18T05:55:41;19.50;78.90
71668;DHT22;59504;54.806;9.640;2022-08-18T05:58:10;19.40;78.70
71668;DHT22;59504;54.806;9.640;2022-08-18T06:00:20;19.60;79.20
71668;DHT22;59504;54.806;9.640;2022-08-18T06:02:32;19.60;78.60
71668;DHT22;59504;54.806;9.640;2022-08-18T06:04:46;19.50;78.70
71668;DHT22;59504;54.806;9.640;2022-08-18T06:07:06;19.50;78.80
71668;DHT22;59504;54.806;9.640;2022-08-18T06:10:05;19.50;79.00
71668;DHT22;59504;54.806;9.640;2022-08-18T06:12:34;19.50;79.00
71668;DHT22;59504;54.806;9.640;2022-08-18T06:14:41;19.40;79.00
71668;DHT22;59504;54.806;9.640;2022-08-18T06:25:01;19.60;79.40
71668;DHT22;59504;54.806;9.640;2022-08-18T06:44:43;20.00;81.10
71668;DHT22;59504;54.806;9.640;2022-08-18T06:47:12;20.10;81.00
71668;DHT22;59504;54.806;9.640;2022-08-18T06:49:33;20.30;81.10
71668;DHT22;59504;54.806;9.640;2022-08-18T06:51:41;20.40;81.30
71668;DHT22;59504;54.806;9.640;2022-08-18T06:56:46;20.50;79.20
71668;DHT22;59504;54.806;9.640;2022-08-18T06:58:49;20.60;79.60
71668;DHT22;59504;54.806;9.640;2022-08-18T07:01:00;20.70;79.30
71668;DHT22;59504;54.806;9.640;2022-08-18T07:03:15;20.80;79.10
71668;DHT22;59504;54.806;9.640;2022-08-18T07:05:30;20.90;78.80
71668;DHT22;59504;54.806;9.640;2022-08-18T07:07:44;21.00;78.70
71668;DHT22;59504;54.806;9.640;2022-08-18T07:09:49;21.00;78.00
71668;DHT22;59504;54.806;9.640;2022-08-18T07:14:25;21.20;76.80
71668;DHT22;59504;54.806;9.640;2022-08-18T07:18:27;21.30;76.60
71668;DHT22;59504;54.806;9.640;2022-08-18T07:20:29;21.30;76.10
71668;DHT22;59504;54.806;9.640;2022-08-18T07:25:28;21.40;74.90
71668;DHT22;59504;54.806;9.640;2022-08-18T07:27:45;21.50;74.30
71668;DHT22;59504;54.806;9.640;2022-08-18T07:30:06;21.50;74.10
71668;DHT22;59504;54.806;9.640;2022-08-18T07:32:17;21.60;73.60
71668;DHT22;59504;54.806;9.640;2022-08-18T07:34:36;21.60;74.10
71668;DHT22;59504;54.806;9.640;2022-08-18T07:36:49;21.70;73.20
71668;DHT22;59504;54.806;9.640;2022-08-18T07:39:14;21.70;73.60
71668;DHT22;59504;54.806;9.640;2022-08-18T07:41:26;21.70;72.90
71668;DHT22;59504;54.806;9.640;2022-08-18T07:49:10;21.80;71.80
71668;DHT22;59504;54.806;9.640;2022-08-18T07:51:45;21.80;71.60
71668;DHT22;59504;54.806;9.640;2022-08-18T07:56:34;21.90;71.40
71668;DHT22;59504;54.806;9.640;2022-08-18T07:58:46;21.90;71.10
71668;DHT22;59504;54.806;9.640;2022-08-18T08:05:55;22.10;71.20
71668;DHT22;59504;54.806;9.640;2022-08-18T08:08:02;22.10;71.10
71668;DHT22;59504;54.806;9.640;2022-08-18T08:10:30;22.20;71.00
71668;DHT22;59504;54.806;9.640;2022-08-18T08:16:50;22.40;69.30
71668;DHT22;59504;54.806;9.640;2022-08-18T08:21:18;22.40;68.50
71668;DHT22;59504;54.806;9.640;2022-08-18T08:23:54;22.50;68.90
71668;DHT22;59504;54.806;9.640;2022-08-18T08:31:01;22.70;66.90
71668;DHT22;59504;54.806;9.640;2022-08-18T08:37:50;22.80;67.60
71668;DHT22;59504;54.806;9.640;2022-08-18T08:40:03;22.80;65.60
71668;DHT22;59504;54.806;9.640;2022-08-18T08:42:08;22.80;65.80
71668;DHT22;59504;54.806;9.640;2022-08-18T08:44:26;22.90;65.40
71668;DHT22;59504;54.806;9.640;2022-08-18T08:49:06;22.90;63.40
71668;DHT22;59504;54.806;9.640;2022-08-18T08:55:43;23.00;63.90
71668;DHT22;59504;54.806;9.640;2022-08-18T08:58:53;23.00;61.80
71668;DHT22;59504;54.806;9.640;2022-08-18T09:00:29;23.10;61.30
71668;DHT22;59504;54.806;9.640;2022-08-18T09:02:53;23.10;62.50
71668;DHT22;59504;54.806;9.640;2022-08-18T09:05:09;23.10;63.00
71668;DHT22;59504;54.806;9.640;2022-08-18T09:10:15;23.20;62.20
71668;DHT22;59504;54.806;9.640;2022-08-18T09:19:59;23.30;60.20
71668;DHT22;59504;54.806;9.640;2022-08-18T09:23:00;23.40;60.60
71668;DHT22;59504;54.806;9.640;2022-08-18T09:25:28;23.40;60.50
71668;DHT22;59504;54.806;9.640;2022-08-18T09:27:43;23.40;60.70
71668;DHT22;59504;54.806;9.640;2022-08-18T09:29:54;23.50;60.50
71668;DHT22;59504;54.806;9.640;2022-08-18T09:34:41;23.50;59.40
71668;DHT22;59504;54.806;9.640;2022-08-18T09:37:15;23.50;60.50
71668;DHT22;59504;54.806;9.640;2022-08-18T09:39:39;23.50;60.40
71668;DHT22;59504;54.806;9.640;2022-08-18T09:42:15;23.50;59.50
71668;DHT22;59504;54.806;9.640;2022-08-18T09:46:52;23.60;59.60
71668;DHT22;59504;54.806;9.640;2022-08-18T09:51:36;23.60;59.70
71668;DHT22;59504;54.806;9.640;2022-08-18T09:55:55;23.60;59.60
71668;DHT22;59504;54.806;9.640;2022-08-18T09:58:26;23.60;58.60
71668;DHT22;59504;54.806;9.640;2022-08-18T10:00:38;23.60;58.30
71668;DHT22;59504;54.806;9.640;2022-08-18T10:04:44;23.70;58.60
71668;DHT22;59504;54.806;9.640;2022-08-18T10:06:53;23.60;58.50
71668;DHT22;59504;54.806;9.640;2022-08-18T10:12:31;23.70;58.80
71668;DHT22;59504;54.806;9.640;2022-08-18T10:22:59;23.80;58.70
71668;DHT22;59504;54.806;9.640;2022-08-18T10:25:00;23.90;59.20
71668;DHT22;59504;54.806;9.640;2022-08-18T10:27:07;23.90;59.30
71668;DHT22;59504;54.806;9.640;2022-08-18T10:34:10;24.00;59.30
71668;DHT22;59504;54.806;9.640;2022-08-18T10:38:50;24.10;58.70
71668;DHT22;59504;54.806;9.640;2022-08-18T10:41:13;24.10;58.90
71668;DHT22;59504;54.806;9.640;2022-08-18T10:43:40;24.10;58.50
71668;DHT22;59504;54.806;9.640;2022-08-18T10:45:52;24.10;58.50
71668;DHT22;59504;54.806;9.640;2022-08-18T10:53:46;24.20;59.40
71668;DHT22;59504;54.806;9.640;2022-08-18T10:58:52;24.30;59.30
71668;DHT22;59504;54.806;9.640;2022-08-18T11:05:42;24.50;58.60
71668;DHT22;59504;54.806;9.640;2022-08-18T11:07:59;24.60;58.50
71668;DHT22;59504;54.806;9.640;2022-08-18T11:10:51;24.60;58.00
71668;DHT22;59504;54.806;9.640;2022-08-18T11:20:13;24.80;57.30
71668;DHT22;59504;54.806;9.640;2022-08-18T11:22:27;24.70;57.20
71668;DHT22;59504;54.806;9.640;2022-08-18T11:24:30;24.70;57.10
71668;DHT22;59504;54.806;9.640;2022-08-18T11:26:35;24.70;57.10
71668;DHT22;59504;54.806;9.640;2022-08-18T11:28:45;24.70;57.50
71668;DHT22;59504;54.806;9.640;2022-08-18T11:30:52;24.70;57.70
71668;DHT22;59504;54.806;9.640;2022-08-18T11:32:55;24.70;57.10
71668;DHT22;59504;54.806;9.640;2022-08-18T11:37:01;24.70;57.10
71668;DHT22;59504;54.806;9.640;2022-08-18T11:39:06;24.70;57.10
71668;DHT22;59504;54.806;9.640;2022-08-18T11:41:19;24.70;57.20
71668;DHT22;59504;54.806;9.640;2022-08-18T11:43:29;24.80;57.00
71668;DHT22;59504;54.806;9.640;2022-08-18T11:50:27;24.80;57.40
71668;DHT22;59504;54.806;9.640;2022-08-18T11:52:29;24.80;56.50
71668;DHT22;59504;54.806;9.640;2022-08-18T11:54:51;24.80;57.00
71668;DHT22;59504;54.806;9.640;2022-08-18T12:00:00;24.90;57.10
71668;DHT22;59504;54.806;9.640;2022-08-18T12:02:40;24.90;57.10
71668;DHT22;59504;54.806;9.640;2022-08-18T12:04:42;25.00;57.00
71668;DHT22;59504;54.806;9.640;2022-08-18T12:07:10;25.10;57.10
71668;DHT22;59504;54.806;9.640;2022-08-18T12:14:24;25.20;55.20
71668;DHT22;59504;54.806;9.640;2022-08-18T12:16:34;25.20;55.90
71668;DHT22;59504;54.806;9.640;2022-08-18T12:18:37;25.30;55.60
71668;DHT22;59504;54.806;9.640;2022-08-18T12:21:33;25.30;56.40
71668;DHT22;59504;54.806;9.640;2022-08-18T12:24:17;25.40;56.00
71668;DHT22;59504;54.806;9.640;2022-08-18T12:26:19;25.40;55.70
71668;DHT22;59504;54.806;9.640;2022-08-18T12:28:46;25.50;55.30
71668;DHT22;59504;54.806;9.640;2022-08-18T12:33:31;25.60;55.00
71668;DHT22;59504;54.806;9.640;2022-08-18T12:35:50;25.70;55.60
71668;DHT22;59504;54.806;9.640;2022-08-18T12:38:43;25.70;55.40
71668;DHT22;59504;54.806;9.640;2022-08-18T12:43:17;25.80;54.90
71668;DHT22;59504;54.806;9.640;2022-08-18T12:45:53;25.90;55.40
71668;DHT22;59504;54.806;9.640;2022-08-18T12:48:22;25.80;55.50
71668;DHT22;59504;54.806;9.640;2022-08-18T12:50:46;25.70;54.70
71668;DHT22;59504;54.806;9.640;2022-08-18T12:52:49;25.80;54.80
71668;DHT22;59504;54.806;9.640;2022-08-18T12:54:53;25.80;54.60
71668;DHT22;59504;54.806;9.640;2022-08-18T12:57:10;25.70;54.90
71668;DHT22;59504;54.806;9.640;2022-08-18T12:59:33;25.70;55.20
71668;DHT22;59504;54.806;9.640;2022-08-18T13:02:00;25.60;55.80
71668;DHT22;59504;54.806;9.640;2022-08-18T13:04:01;25.60;56.50
71668;DHT22;59504;54.806;9.640;2022-08-18T13:06:16;25.60;56.80
71668;DHT22;59504;54.806;9.640;2022-08-18T13:08:29;25.50;56.90
71668;DHT22;59504;54.806;9.640;2022-08-18T13:10:33;25.50;56.40
71668;DHT22;59504;54.806;9.640;2022-08-18T13:15:27;25.60;56.60
71668;DHT22;59504;54.806;9.640;2022-08-18T13:17:28;25.50;56.80
71668;DHT22;59504;54.806;9.640;2022-08-18T13:19:33;25.50;57.10
71668;DHT22;59504;54.806;9.640;2022-08-18T13:21:43;25.50;57.20
71668;DHT22;59504;54.806;9.640;2022-08-18T13:23:56;25.40;57.20
71668;DHT22;59504;54.806;9.640;2022-08-18T13:26:01;25.40;56.90
71668;DHT22;59504;54.806;9.640;2022-08-18T13:28:05;25.40;57.10
71668;DHT22;59504;54.806;9.640;2022-08-18T13:30:17;25.30;57.40
71668;DHT22;59504;54.806;9.640;2022-08-18T13:32:30;25.30;57.60
71668;DHT22;59504;54.806;9.640;2022-08-18T13:35:17;25.30;57.60
71668;DHT22;59504;54.806;9.640;2022-08-18T13:37:21;25.30;57.80
71668;DHT22;59504;54.806;9.640;2022-08-18T13:39:43;25.20;57.80
71668;DHT22;59504;54.806;9.640;2022-08-18T13:41:47;25.30;57.80
71668;DHT22;59504;54.806;9.640;2022-08-18T13:44:00;25.20;57.60
71668;DHT22;59504;54.806;9.640;2022-08-18T13:46:08;25.10;57.80
71668;DHT22;59504;54.806;9.640;2022-08-18T13:48:09;25.10;58.00
71668;DHT22;59504;54.806;9.640;2022-08-18T13:50:11;25.10;58.10
71668;DHT22;59504;54.806;9.640;2022-08-18T13:52:12;25.10;58.30
71668;DHT22;59504;54.806;9.640;2022-08-18T13:54:23;25.10;58.50
71668;DHT22;59504;54.806;9.640;2022-08-18T13:56:24;25.10;58.70
71668;DHT22;59504;54.806;9.640;2022-08-18T13:58:27;25.00;58.40
71668;DHT22;59504;54.806;9.640;2022-08-18T14:00:27;25.00;58.30
71668;DHT22;59504;54.806;9.640;2022-08-18T14:02:29;25.00;58.40
71668;DHT22;59504;54.806;9.640;2022-08-18T14:04:30;25.00;58.60
71668;DHT22;59504;54.806;9.640;2022-08-18T14:06:31;25.00;58.50
71668;DHT22;59504;54.806;9.640;2022-08-18T14:08:32;25.00;58.00
71668;DHT22;59504;54.806;9.640;2022-08-18T14:10:33;25.00;58.00
71668;DHT22;59504;54.806;9.640;2022-08-18T14:12:35;25.00;58.20
71668;DHT22;59504;54.806;9.640;2022-08-18T14:14:37;25.00;58.00
71668;DHT22;59504;54.806;9.640;2022-08-18T14:16:38;24.90;57.80
71668;DHT22;59504;54.806;9.640;2022-08-18T14:18:39;24.90;57.70
71668;DHT22;59504;54.806;9.640;2022-08-18T14:20:40;24.90;57.80
71668;DHT22;59504;54.806;9.640;2022-08-18T14:23:00;24.90;57.70
71668;DHT22;59504;54.806;9.640;2022-08-18T14:25:20;24.90;57.80
71668;DHT22;59504;54.806;9.640;2022-08-18T14:27:39;24.90;57.80
71668;DHT22;59504;54.806;9.640;2022-08-18T14:29:41;24.80;57.80
71668;DHT22;59504;54.806;9.640;2022-08-18T14:31:42;24.80;57.90
71668;DHT22;59504;54.806;9.640;2022-08-18T14:33:44;24.80;57.90
71668;DHT22;59504;54.806;9.640;2022-08-18T14:35:46;24.80;58.00
71668;DHT22;59504;54.806;9.640;2022-08-18T14:37:47;24.80;58.00
71668;DHT22;59504;54.806;9.640;2022-08-18T14:39:49;24.80;58.20
71668;DHT22;59504;54.806;9.640;2022-08-18T14:41:50;24.80;58.60
71668;DHT22;59504;54.806;9.640;2022-08-18T14:43:51;24.80;58.70
71668;DHT22;59504;54.806;9.640;2022-08-18T14:45:55;24.80;58.60
71668;DHT22;59504;54.806;9.640;2022-08-18T14:48:03;24.80;58.70
71668;DHT22;59504;54.806;9.640;2022-08-18T14:50:10;24.90;58.80
71668;DHT22;59504;54.806;9.640;2022-08-18T14:52:13;24.90;58.70
71668;DHT22;59504;54.806;9.640;2022-08-18T14:54:14;24.90;58.50
71668;DHT22;59504;54.806;9.640;2022-08-18T14:56:16;24.90;58.40
71668;DHT22;59504;54.806;9.640;2022-08-18T14:58:19;25.00;58.50
71668;DHT22;59504;54.806;9.640;2022-08-18T15:00:20;25.00;58.50
71668;DHT22;59504;54.806;9.640;2022-08-18T15:02:22;25.00;58.50
71668;DHT22;59504;54.806;9.640;2022-08-18T15:04:24;25.00;58.60
71668;DHT22;59504;54.806;9.640;2022-08-18T15:06:26;25.00;58.70
71668;DHT22;59504;54.806;9.640;2022-08-18T15:08:28;25.00;58.90
71668;DHT22;59504;54.806;9.640;2022-08-18T15:10:29;25.00;58.60
71668;DHT22;59504;54.806;9.640;2022-08-18T15:12:30;25.00;58.60
71668;DHT22;59504;54.806;9.640;2022-08-18T15:14:31;25.00;58.70
71668;DHT22;59504;54.806;9.640;2022-08-18T15:16:34;25.10;58.80
71668;DHT22;59504;54.806;9.640;2022-08-18T15:18:35;25.00;58.40
71668;DHT22;59504;54.806;9.640;2022-08-18T15:20:36;25.00;58.50
71668;DHT22;59504;54.806;9.640;2022-08-18T15:23:02;25.10;58.50
71668;DHT22;59504;54.806;9.640;2022-08-18T15:25:21;25.00;58.50
71668;DHT22;59504;54.806;9.640;2022-08-18T15:27:41;25.10;58.70
71668;DHT22;59504;54.806;9.640;2022-08-18T15:29:42;25.10;58.40
71668;DHT22;59504;54.806;9.640;2022-08-18T15:31:44;25.10;58.30
71668;DHT22;59504;54.806;9.640;2022-08-18T15:33:46;25.10;58.20
71668;DHT22;59504;54.806;9.640;2022-08-18T15:35:47;25.10;58.20
71668;DHT22;59504;54.806;9.640;2022-08-18T15:37:47;25.10;58.20
71668;DHT22;59504;54.806;9.640;2022-08-18T15:39:48;25.10;58.30
71668;DHT22;59504;54.806;9.640;2022-08-18T15:41:49;25.10;58.30
71668;DHT22;59504;54.806;9.640;2022-08-18T15:43:50;25.00;58.40
71668;DHT22;59504;54.806;9.640;2022-08-18T15:45:50;25.00;58.40
71668;DHT22;59504;54.806;9.640;2022-08-18T15:47:52;25.00;58.40
71668;DHT22;59504;54.806;9.640;2022-08-18T15:49:54;25.00;58.50
71668;DHT22;59504;54.806;9.640;2022-08-18T15:51:54;25.00;59.00
71668;DHT22;59504;54.806;9.640;2022-08-18T15:53:55;25.00;58.50
71668;DHT22;59504;54.806;9.640;2022-08-18T15:55:56;24.90;58.60
71668;DHT22;59504;54.806;9.640;2022-08-18T15:57:57;24.90;58.70
71668;DHT22;59504;54.806;9.640;2022-08-18T15:59:59;24.90;58.80
71668;DHT22;59504;54.806;9.640;2022-08-18T16:02:00;24.90;58.90
71668;DHT22;59504;54.806;9.640;2022-08-18T16:04:03;24.90;59.00
71668;DHT22;59504;54.806;9.640;2022-08-18T16:06:05;24.80;59.10
71668;DHT22;59504;54.806;9.640;2022-08-18T16:08:08;24.80;59.10
71668;DHT22;59504;54.806;9.640;2022-08-18T16:10:14;24.80;59.10
71668;DHT22;59504;54.806;9.640;2022-08-18T16:12:15;24.80;59.10